aviador You're here:

LFBO Decoded Metar

TOULOUSE BLAGNAC in FRANCE
Report Time2017-08-24 02:30:00
UTC Time2017-08-24 03:05:55
Flight Rules vfr VFR
Wind210° at 05 kt
W.Decomp.*RWY 14: 1.7 kt HW 4.7 kt RCW
W.Rank210° ranks 24
Current wind is above 210° avg. (4.4)
Visibility9999 m
Phenomena:N/A
Clouds:N/A
Expected CloudBase > 1,600 ft AGL from Temp-Dew spread
CeilingNone
Temp21°C (ISA +7)
Dew Point17°C (78% RH)
QNH1016 hPa
Density Alt1,476 ft
Elevation502 ft
Report Wrong Elevation
Raw Report
LFBO 240230Z AUTO 21005KT CAVOK 21/17 Q1016 TEMPO SCT090TCU=

Extra information for LFBO:More info

Metar Taf Metar & Taf Last 4 Metars F.Rules Stats Wind Profile Meteogram Temp Stats Airport Information Weather charts Add Link Nearby VenuesMetar ALERT Operation Metar Decoded Social comments